sensor_id;sensor_type;location;lat;lon;timestamp;pressure;altitude;pressure_sealevel;temperature;humidity
46718;BME280;32448;44.960;-0.698;2023-04-06T00:00:10;101805.50;;;7.52;100.00
46718;BME280;32448;44.960;-0.698;2023-04-06T00:05:30;101809.13;;;7.56;100.00
46718;BME280;32448;44.960;-0.698;2023-04-06T00:07:57;101798.94;;;7.60;100.00
46718;BME280;32448;44.960;-0.698;2023-04-06T00:10:24;101806.88;;;7.63;100.00
46718;BME280;32448;44.960;-0.698;2023-04-06T00:12:52;101800.91;;;7.66;100.00
46718;BME280;32448;44.960;-0.698;2023-04-06T00:15:19;101801.00;;;7.67;100.00
46718;BME280;32448;44.960;-0.698;2023-04-06T00:17:46;101794.97;;;7.68;100.00
46718;BME280;32448;44.960;-0.698;2023-04-06T00:20:14;101799.50;;;7.73;100.00
46718;BME280;32448;44.960;-0.698;2023-04-06T00:22:41;101802.03;;;7.71;100.00
46718;BME280;32448;44.960;-0.698;2023-04-06T00:25:08;101794.97;;;7.68;100.00
46718;BME280;32448;44.960;-0.698;2023-04-06T00:27:37;101792.16;;;7.64;100.00
46718;BME280;32448;44.960;-0.698;2023-04-06T00:30:04;101786.94;;;7.64;100.00
46718;BME280;32448;44.960;-0.698;2023-04-06T00:32:31;101784.41;;;7.65;100.00
46718;BME280;32448;44.960;-0.698;2023-04-06T00:34:58;101775.66;;;7.63;100.00
46718;BME280;32448;44.960;-0.698;2023-04-06T00:37:26;101781.75;;;7.64;100.00
46718;BME280;32448;44.960;-0.698;2023-04-06T00:39:53;101777.34;;;7.63;100.00
46718;BME280;32448;44.960;-0.698;2023-04-06T00:42:21;101784.28;;;7.62;100.00
46718;BME280;32448;44.960;-0.698;2023-04-06T00:44:56;101778.06;;;7.59;100.00
46718;BME280;32448;44.960;-0.698;2023-04-06T00:47:24;101777.09;;;7.57;100.00
46718;BME280;32448;44.960;-0.698;2023-04-06T00:49:54;101780.44;;;7.54;100.00
46718;BME280;32448;44.960;-0.698;2023-04-06T00:52:22;101787.28;;;7.52;100.00
46718;BME280;32448;44.960;-0.698;2023-04-06T00:54:49;101781.25;;;7.53;100.00
46718;BME280;32448;44.960;-0.698;2023-04-06T00:57:19;101776.88;;;7.52;100.00
46718;BME280;32448;44.960;-0.698;2023-04-06T00:59:52;101783.94;;;7.55;100.00
46718;BME280;32448;44.960;-0.698;2023-04-06T01:02:20;101781.16;;;7.50;100.00
46718;BME280;32448;44.960;-0.698;2023-04-06T01:04:50;101774.28;;;7.52;100.00
46718;BME280;32448;44.960;-0.698;2023-04-06T01:07:34;101776.69;;;7.48;100.00
46718;BME280;32448;44.960;-0.698;2023-04-06T01:10:07;101768.66;;;7.43;100.00
46718;BME280;32448;44.960;-0.698;2023-04-06T01:12:35;101776.31;;;7.40;100.00
46718;BME280;32448;44.960;-0.698;2023-04-06T01:15:08;101763.72;;;7.30;100.00
46718;BME280;32448;44.960;-0.698;2023-04-06T01:17:40;101765.97;;;7.22;100.00
46718;BME280;32448;44.960;-0.698;2023-04-06T01:20:12;101768.50;;;7.21;100.00
46718;BME280;32448;44.960;-0.698;2023-04-06T01:22:39;101765.00;;;7.20;100.00
46718;BME280;32448;44.960;-0.698;2023-04-06T01:25:06;101754.00;;;7.26;100.00
46718;BME280;32448;44.960;-0.698;2023-04-06T01:27:41;101752.22;;;7.25;100.00
46718;BME280;32448;44.960;-0.698;2023-04-06T01:30:28;101764.25;;;7.23;100.00
46718;BME280;32448;44.960;-0.698;2023-04-06T01:32:59;101753.13;;;7.25;100.00
46718;BME280;32448;44.960;-0.698;2023-04-06T01:36:02;101754.19;;;7.30;100.00
46718;BME280;32448;44.960;-0.698;2023-04-06T01:38:30;101749.91;;;7.31;100.00
46718;BME280;32448;44.960;-0.698;2023-04-06T01:40:57;101764.75;;;7.34;100.00
46718;BME280;32448;44.960;-0.698;2023-04-06T01:43:28;101748.25;;;7.33;100.00
46718;BME280;32448;44.960;-0.698;2023-04-06T01:46:03;101736.22;;;7.35;100.00
46718;BME280;32448;44.960;-0.698;2023-04-06T01:48:34;101730.34;;;7.39;100.00
46718;BME280;32448;44.960;-0.698;2023-04-06T01:51:11;101728.41;;;7.35;100.00
46718;BME280;32448;44.960;-0.698;2023-04-06T01:53:46;101712.75;;;7.34;100.00
46718;BME280;32448;44.960;-0.698;2023-04-06T01:56:13;101711.03;;;7.34;100.00
46718;BME280;32448;44.960;-0.698;2023-04-06T01:58:46;101698.69;;;7.30;100.00
46718;BME280;32448;44.960;-0.698;2023-04-06T02:01:15;101705.91;;;7.36;100.00
46718;BME280;32448;44.960;-0.698;2023-04-06T02:03:50;101703.16;;;7.32;100.00
46718;BME280;32448;44.960;-0.698;2023-04-06T02:06:18;101711.84;;;7.33;100.00
46718;BME280;32448;44.960;-0.698;2023-04-06T02:08:45;101709.41;;;7.36;100.00
46718;BME280;32448;44.960;-0.698;2023-04-06T02:11:13;101714.44;;;7.33;100.00
46718;BME280;32448;44.960;-0.698;2023-04-06T02:13:45;101715.13;;;7.29;100.00
46718;BME280;32448;44.960;-0.698;2023-04-06T02:16:13;101711.69;;;7.30;100.00
46718;BME280;32448;44.960;-0.698;2023-04-06T02:18:43;101713.22;;;7.25;100.00
46718;BME280;32448;44.960;-0.698;2023-04-06T02:21:11;101701.72;;;7.20;100.00
46718;BME280;32448;44.960;-0.698;2023-04-06T02:23:38;101691.38;;;7.21;100.00
46718;BME280;32448;44.960;-0.698;2023-04-06T02:26:05;101695.28;;;7.12;100.00
46718;BME280;32448;44.960;-0.698;2023-04-06T02:28:32;101695.44;;;7.15;100.00
46718;BME280;32448;44.960;-0.698;2023-04-06T02:31:00;101694.19;;;7.07;100.00
46718;BME280;32448;44.960;-0.698;2023-04-06T02:33:27;101686.66;;;7.13;100.00
46718;BME280;32448;44.960;-0.698;2023-04-06T02:35:54;101697.81;;;7.10;100.00
46718;BME280;32448;44.960;-0.698;2023-04-06T02:38:22;101696.84;;;7.08;100.00
46718;BME280;32448;44.960;-0.698;2023-04-06T02:40:51;101690.75;;;7.08;100.00
46718;BME280;32448;44.960;-0.698;2023-04-06T02:43:21;101654.28;;;6.87;100.00
46718;BME280;32448;44.960;-0.698;2023-04-06T02:45:52;101677.91;;;7.11;100.00
46718;BME280;32448;44.960;-0.698;2023-04-06T02:48:21;101675.53;;;7.15;100.00
46718;BME280;32448;44.960;-0.698;2023-04-06T02:50:48;101667.81;;;7.17;100.00
46718;BME280;32448;44.960;-0.698;2023-04-06T02:53:15;101671.88;;;7.12;100.00
46718;BME280;32448;44.960;-0.698;2023-04-06T02:55:42;101666.75;;;7.13;100.00
46718;BME280;32448;44.960;-0.698;2023-04-06T02:58:09;101667.56;;;7.12;100.00
46718;BME280;32448;44.960;-0.698;2023-04-06T03:00:43;101661.50;;;7.12;100.00
46718;BME280;32448;44.960;-0.698;2023-04-06T03:03:10;101664.25;;;7.15;100.00
46718;BME280;32448;44.960;-0.698;2023-04-06T03:05:39;101657.41;;;7.17;100.00
46718;BME280;32448;44.960;-0.698;2023-04-06T03:08:07;101660.94;;;7.19;100.00
46718;BME280;32448;44.960;-0.698;2023-04-06T03:10:40;101667.31;;;7.06;100.00
46718;BME280;32448;44.960;-0.698;2023-04-06T03:13:07;101666.47;;;7.07;100.00
46718;BME280;32448;44.960;-0.698;2023-04-06T03:16:04;101669.78;;;7.03;100.00
46718;BME280;32448;44.960;-0.698;2023-04-06T03:18:32;101671.47;;;7.03;100.00
46718;BME280;32448;44.960;-0.698;2023-04-06T03:20:59;101677.50;;;7.02;100.00
46718;BME280;32448;44.960;-0.698;2023-04-06T03:23:50;101685.69;;;6.91;100.00
46718;BME280;32448;44.960;-0.698;2023-04-06T03:26:17;101698.69;;;6.91;100.00
46718;BME280;32448;44.960;-0.698;2023-04-06T03:28:44;101691.84;;;6.93;100.00
46718;BME280;32448;44.960;-0.698;2023-04-06T03:31:12;101696.56;;;6.83;100.00
46718;BME280;32448;44.960;-0.698;2023-04-06T03:33:52;101699.34;;;6.87;100.00
46718;BME280;32448;44.960;-0.698;2023-04-06T03:36:23;101695.66;;;6.82;100.00
46718;BME280;32448;44.960;-0.698;2023-04-06T03:38:54;101699.81;;;6.79;100.00
46718;BME280;32448;44.960;-0.698;2023-04-06T03:41:21;101700.28;;;6.70;100.00
46718;BME280;32448;44.960;-0.698;2023-04-06T03:43:58;101703.63;;;6.68;100.00
46718;BME280;32448;44.960;-0.698;2023-04-06T03:46:25;101711.19;;;6.63;100.00
46718;BME280;32448;44.960;-0.698;2023-04-06T03:48:55;101710.16;;;6.60;100.00
46718;BME280;32448;44.960;-0.698;2023-04-06T03:51:23;101712.59;;;6.56;100.00
46718;BME280;32448;44.960;-0.698;2023-04-06T03:53:53;101718.69;;;6.57;100.00
46718;BME280;32448;44.960;-0.698;2023-04-06T03:56:30;101712.91;;;6.63;100.00
46718;BME280;32448;44.960;-0.698;2023-04-06T03:58:59;101712.75;;;6.60;100.00
46718;BME280;32448;44.960;-0.698;2023-04-06T04:01:28;101724.78;;;6.57;100.00
46718;BME280;32448;44.960;-0.698;2023-04-06T04:04:07;101723.97;;;6.58;100.00
46718;BME280;32448;44.960;-0.698;2023-04-06T04:06:51;101728.34;;;6.60;100.00
46718;BME280;32448;44.960;-0.698;2023-04-06T04:09:32;101731.03;;;6.61;100.00
46718;BME280;32448;44.960;-0.698;2023-04-06T04:12:10;101739.91;;;6.66;100.00
46718;BME280;32448;44.960;-0.698;2023-04-06T04:14:38;101735.75;;;6.70;100.00
46718;BME280;32448;44.960;-0.698;2023-04-06T04:17:09;101736.03;;;6.76;100.00
46718;BME280;32448;44.960;-0.698;2023-04-06T04:19:40;101732.69;;;6.78;100.00
46718;BME280;32448;44.960;-0.698;2023-04-06T04:22:14;101744.25;;;6.85;100.00
46718;BME280;32448;44.960;-0.698;2023-04-06T04:24:42;101746.94;;;6.86;100.00
46718;BME280;32448;44.960;-0.698;2023-04-06T04:27:09;101749.53;;;6.86;100.00
46718;BME280;32448;44.960;-0.698;2023-04-06T04:29:38;101754.88;;;6.89;100.00
46718;BME280;32448;44.960;-0.698;2023-04-06T04:32:08;101760.41;;;6.96;100.00
46718;BME280;32448;44.960;-0.698;2023-04-06T04:34:35;101757.03;;;6.98;100.00
46718;BME280;32448;44.960;-0.698;2023-04-06T04:37:04;101751.75;;;6.97;100.00
46718;BME280;32448;44.960;-0.698;2023-04-06T04:39:45;101758.66;;;6.96;100.00
46718;BME280;32448;44.960;-0.698;2023-04-06T04:42:12;101766.44;;;6.96;100.00
46718;BME280;32448;44.960;-0.698;2023-04-06T04:44:45;101766.59;;;6.99;100.00
46718;BME280;32448;44.960;-0.698;2023-04-06T04:47:15;101769.50;;;7.05;100.00
46718;BME280;32448;44.960;-0.698;2023-04-06T04:49:48;101762.59;;;7.06;100.00
46718;BME280;32448;44.960;-0.698;2023-04-06T04:52:20;101759.03;;;7.04;100.00
46718;BME280;32448;44.960;-0.698;2023-04-06T04:55:07;101731.28;;;6.85;100.00
46718;BME280;32448;44.960;-0.698;2023-04-06T04:57:34;101775.38;;;7.01;100.00
46718;BME280;32448;44.960;-0.698;2023-04-06T05:00:04;101771.13;;;7.03;100.00
46718;BME280;32448;44.960;-0.698;2023-04-06T05:02:33;101770.41;;;7.06;100.00
46718;BME280;32448;44.960;-0.698;2023-04-06T05:05:17;101759.84;;;7.03;100.00
46718;BME280;32448;44.960;-0.698;2023-04-06T05:07:44;101761.63;;;7.04;100.00
46718;BME280;32448;44.960;-0.698;2023-04-06T05:10:36;101763.53;;;7.08;100.00
46718;BME280;32448;44.960;-0.698;2023-04-06T05:13:03;101786.19;;;7.10;100.00
46718;BME280;32448;44.960;-0.698;2023-04-06T05:15:30;101784.50;;;7.11;100.00
46718;BME280;32448;44.960;-0.698;2023-04-06T05:18:04;101777.44;;;7.08;100.00
46718;BME280;32448;44.960;-0.698;2023-04-06T05:20:34;101774.91;;;7.10;100.00
46718;BME280;32448;44.960;-0.698;2023-04-06T05:23:02;101774.72;;;7.05;100.00
46718;BME280;32448;44.960;-0.698;2023-04-06T05:25:30;101771.72;;;6.98;100.00
46718;BME280;32448;44.960;-0.698;2023-04-06T05:28:05;101765.34;;;6.91;100.00
46718;BME280;32448;44.960;-0.698;2023-04-06T05:30:35;101761.53;;;6.83;100.00
46718;BME280;32448;44.960;-0.698;2023-04-06T05:33:03;101764.78;;;6.79;100.00
46718;BME280;32448;44.960;-0.698;2023-04-06T05:35:42;101766.63;;;6.64;100.00
46718;BME280;32448;44.960;-0.698;2023-04-06T05:38:12;101778.66;;;6.62;100.00
46718;BME280;32448;44.960;-0.698;2023-04-06T05:40:39;101789.47;;;6.53;100.00
46718;BME280;32448;44.960;-0.698;2023-04-06T05:43:11;101790.16;;;6.49;100.00
46718;BME280;32448;44.960;-0.698;2023-04-06T05:45:48;101789.63;;;6.38;100.00
46718;BME280;32448;44.960;-0.698;2023-04-06T05:48:30;101787.31;;;6.44;100.00
46718;BME280;32448;44.960;-0.698;2023-04-06T05:51:00;101782.03;;;6.43;100.00
46718;BME280;32448;44.960;-0.698;2023-04-06T05:53:37;101781.75;;;6.37;100.00
46718;BME280;32448;44.960;-0.698;2023-04-06T05:56:05;101788.50;;;6.33;100.00
46718;BME280;32448;44.960;-0.698;2023-04-06T05:58:32;101791.81;;;6.31;100.00
46718;BME280;32448;44.960;-0.698;2023-04-06T06:00:59;101800.41;;;6.30;100.00
46718;BME280;32448;44.960;-0.698;2023-04-06T06:03:35;101809.84;;;6.28;100.00
46718;BME280;32448;44.960;-0.698;2023-04-06T06:06:03;101814.88;;;6.25;100.00
46718;BME280;32448;44.960;-0.698;2023-04-06T06:08:57;101817.47;;;6.25;100.00
46718;BME280;32448;44.960;-0.698;2023-04-06T06:11:33;101820.16;;;6.26;100.00
46718;BME280;32448;44.960;-0.698;2023-04-06T06:14:02;101823.66;;;6.27;100.00
46718;BME280;32448;44.960;-0.698;2023-04-06T06:16:33;101827.13;;;6.27;100.00
46718;BME280;32448;44.960;-0.698;2023-04-06T06:19:01;101827.50;;;6.35;100.00
46718;BME280;32448;44.960;-0.698;2023-04-06T06:21:33;101834.75;;;6.40;100.00
46718;BME280;32448;44.960;-0.698;2023-04-06T06:24:05;101841.38;;;6.51;100.00
46718;BME280;32448;44.960;-0.698;2023-04-06T06:26:34;101842.78;;;6.63;100.00
46718;BME280;32448;44.960;-0.698;2023-04-06T06:29:06;101838.78;;;6.69;100.00
46718;BME280;32448;44.960;-0.698;2023-04-06T06:31:36;101842.47;;;6.74;100.00
46718;BME280;32448;44.960;-0.698;2023-04-06T06:34:03;101846.28;;;6.81;100.00
46718;BME280;32448;44.960;-0.698;2023-04-06T06:36:33;101845.94;;;6.91;100.00
46718;BME280;32448;44.960;-0.698;2023-04-06T06:39:01;101848.00;;;6.98;100.00
46718;BME280;32448;44.960;-0.698;2023-04-06T06:41:30;101838.03;;;7.07;100.00
46718;BME280;32448;44.960;-0.698;2023-04-06T06:43:57;101843.63;;;7.15;100.00
46718;BME280;32448;44.960;-0.698;2023-04-06T06:46:24;101844.88;;;7.23;100.00
46718;BME280;32448;44.960;-0.698;2023-04-06T06:48:52;101847.75;;;7.29;100.00
46718;BME280;32448;44.960;-0.698;2023-04-06T06:51:20;101849.03;;;7.37;100.00
46718;BME280;32448;44.960;-0.698;2023-04-06T06:53:47;101850.19;;;7.44;100.00
46718;BME280;32448;44.960;-0.698;2023-04-06T06:56:16;101858.34;;;7.51;100.00
46718;BME280;32448;44.960;-0.698;2023-04-06T06:58:52;101847.41;;;7.58;100.00
46718;BME280;32448;44.960;-0.698;2023-04-06T07:01:20;101850.78;;;7.75;100.00
46718;BME280;32448;44.960;-0.698;2023-04-06T07:03:47;101846.06;;;7.86;100.00
46718;BME280;32448;44.960;-0.698;2023-04-06T07:06:15;101838.72;;;7.96;100.00
46718;BME280;32448;44.960;-0.698;2023-04-06T07:08:42;101835.69;;;8.07;100.00
46718;BME280;32448;44.960;-0.698;2023-04-06T07:11:09;101831.03;;;8.19;100.00
46718;BME280;32448;44.960;-0.698;2023-04-06T07:13:36;101835.88;;;8.30;100.00
46718;BME280;32448;44.960;-0.698;2023-04-06T07:16:04;101839.88;;;8.42;100.00
46718;BME280;32448;44.960;-0.698;2023-04-06T07:18:38;101841.09;;;8.50;100.00
46718;BME280;32448;44.960;-0.698;2023-04-06T07:21:09;101840.59;;;8.58;100.00
46718;BME280;32448;44.960;-0.698;2023-04-06T07:23:36;101844.47;;;8.68;100.00
46718;BME280;32448;44.960;-0.698;2023-04-06T07:26:04;101842.31;;;8.79;100.00
46718;BME280;32448;44.960;-0.698;2023-04-06T07:28:31;101834.91;;;8.89;100.00
46718;BME280;32448;44.960;-0.698;2023-04-06T07:31:00;101834.41;;;8.98;100.00
46718;BME280;32448;44.960;-0.698;2023-04-06T07:33:28;101834.06;;;9.11;100.00
46718;BME280;32448;44.960;-0.698;2023-04-06T07:35:57;101835.19;;;9.18;100.00
46718;BME280;32448;44.960;-0.698;2023-04-06T07:38:25;101834.69;;;9.26;100.00
46718;BME280;32448;44.960;-0.698;2023-04-06T07:40:54;101841.16;;;9.36;100.00
46718;BME280;32448;44.960;-0.698;2023-04-06T07:43:21;101842.44;;;9.47;100.00
46718;BME280;32448;44.960;-0.698;2023-04-06T07:45:48;101840.38;;;9.61;100.00
46718;BME280;32448;44.960;-0.698;2023-04-06T07:48:16;101828.50;;;9.69;100.00
46718;BME280;32448;44.960;-0.698;2023-04-06T07:50:43;101837.50;;;9.77;100.00
46718;BME280;32448;44.960;-0.698;2023-04-06T07:53:11;101835.97;;;9.83;100.00
46718;BME280;32448;44.960;-0.698;2023-04-06T07:55:38;101832.91;;;9.94;100.00
46718;BME280;32448;44.960;-0.698;2023-04-06T07:58:05;101834.81;;;9.99;100.00
46718;BME280;32448;44.960;-0.698;2023-04-06T08:00:32;101835.97;;;10.07;100.00
46718;BME280;32448;44.960;-0.698;2023-04-06T08:03:00;101826.59;;;10.12;100.00
46718;BME280;32448;44.960;-0.698;2023-04-06T08:05:27;101822.41;;;10.17;100.00
46718;BME280;32448;44.960;-0.698;2023-04-06T08:07:55;101829.69;;;10.25;100.00
46718;BME280;32448;44.960;-0.698;2023-04-06T08:10:22;101832.38;;;10.28;100.00
46718;BME280;32448;44.960;-0.698;2023-04-06T08:12:49;101820.31;;;10.31;100.00
46718;BME280;32448;44.960;-0.698;2023-04-06T08:15:16;101822.94;;;10.31;100.00
46718;BME280;32448;44.960;-0.698;2023-04-06T08:17:44;101816.41;;;10.44;100.00
46718;BME280;32448;44.960;-0.698;2023-04-06T08:20:12;101812.53;;;10.58;100.00
46718;BME280;32448;44.960;-0.698;2023-04-06T08:22:38;101801.50;;;10.67;100.00
46718;BME280;32448;44.960;-0.698;2023-04-06T08:25:05;101805.47;;;10.81;100.00
46718;BME280;32448;44.960;-0.698;2023-04-06T08:27:33;101804.38;;;11.01;100.00
46718;BME280;32448;44.960;-0.698;2023-04-06T08:30:00;101791.75;;;11.16;100.00
46718;BME280;32448;44.960;-0.698;2023-04-06T08:32:27;101798.41;;;11.34;100.00
46718;BME280;32448;44.960;-0.698;2023-04-06T08:34:54;101797.94;;;11.47;100.00
46718;BME280;32448;44.960;-0.698;2023-04-06T08:37:22;101796.38;;;11.83;100.00
46718;BME280;32448;44.960;-0.698;2023-04-06T08:39:49;101797.72;;;11.99;100.00
46718;BME280;32448;44.960;-0.698;2023-04-06T08:42:19;101796.66;;;12.24;100.00
46718;BME280;32448;44.960;-0.698;2023-04-06T08:44:47;101801.09;;;12.28;100.00
46718;BME280;32448;44.960;-0.698;2023-04-06T08:47:15;101804.97;;;12.42;100.00
46718;BME280;32448;44.960;-0.698;2023-04-06T08:49:42;101801.97;;;12.61;100.00
46718;BME280;32448;44.960;-0.698;2023-04-06T08:52:10;101801.28;;;12.68;100.00
46718;BME280;32448;44.960;-0.698;2023-04-06T08:54:38;101808.72;;;12.86;100.00
46718;BME280;32448;44.960;-0.698;2023-04-06T08:57:05;101813.19;;;12.90;100.00
46718;BME280;32448;44.960;-0.698;2023-04-06T08:59:33;101803.09;;;13.07;100.00
46718;BME280;32448;44.960;-0.698;2023-04-06T09:02:02;101810.34;;;13.17;100.00
46718;BME280;32448;44.960;-0.698;2023-04-06T09:04:30;101802.78;;;13.31;100.00
46718;BME280;32448;44.960;-0.698;2023-04-06T09:06:58;101804.91;;;13.47;100.00
46718;BME280;32448;44.960;-0.698;2023-04-06T09:09:25;101805.22;;;13.62;100.00
46718;BME280;32448;44.960;-0.698;2023-04-06T09:11:52;101811.53;;;13.72;100.00
46718;BME280;32448;44.960;-0.698;2023-04-06T09:14:35;101816.16;;;13.83;100.00
46718;BME280;32448;44.960;-0.698;2023-04-06T09:17:04;101813.66;;;13.88;100.00
46718;BME280;32448;44.960;-0.698;2023-04-06T09:19:31;101814.66;;;13.95;100.00
46718;BME280;32448;44.960;-0.698;2023-04-06T09:22:04;101811.56;;;14.17;100.00
46718;BME280;32448;44.960;-0.698;2023-04-06T09:24:50;101818.84;;;14.30;100.00
46718;BME280;32448;44.960;-0.698;2023-04-06T09:27:20;101814.56;;;14.35;100.00
46718;BME280;32448;44.960;-0.698;2023-04-06T09:30:04;101816.53;;;14.45;100.00
46718;BME280;32448;44.960;-0.698;2023-04-06T09:32:32;101814.28;;;14.70;94.40
46718;BME280;32448;44.960;-0.698;2023-04-06T09:35:05;101814.47;;;14.79;100.00
46718;BME280;32448;44.960;-0.698;2023-04-06T09:37:34;101823.25;;;14.79;100.00
46718;BME280;32448;44.960;-0.698;2023-04-06T09:40:02;101827.75;;;14.86;100.00
46718;BME280;32448;44.960;-0.698;2023-04-06T09:42:30;101828.59;;;14.84;82.25
46718;BME280;32448;44.960;-0.698;2023-04-06T09:44:57;101833.84;;;14.84;87.56
46718;BME280;32448;44.960;-0.698;2023-04-06T09:47:24;101827.84;;;14.92;94.39
46718;BME280;32448;44.960;-0.698;2023-04-06T09:49:58;101832.28;;;14.95;79.20
46718;BME280;32448;44.960;-0.698;2023-04-06T09:52:26;101832.47;;;15.07;86.47
46718;BME280;32448;44.960;-0.698;2023-04-06T09:54:55;101833.50;;;15.17;74.36
46718;BME280;32448;44.960;-0.698;2023-04-06T09:57:27;101831.69;;;15.13;72.69
46718;BME280;32448;44.960;-0.698;2023-04-06T10:00:05;101835.41;;;15.27;64.87
46718;BME280;32448;44.960;-0.698;2023-04-06T10:02:58;101839.16;;;15.43;61.61
46718;BME280;32448;44.960;-0.698;2023-04-06T10:05:33;101844.66;;;15.56;66.22
46718;BME280;32448;44.960;-0.698;2023-04-06T10:08:05;101836.75;;;15.56;51.33
46718;BME280;32448;44.960;-0.698;2023-04-06T10:10:39;101835.06;;;15.63;50.99
46718;BME280;32448;44.960;-0.698;2023-04-06T10:13:06;101833.28;;;15.62;56.38
46718;BME280;32448;44.960;-0.698;2023-04-06T10:15:34;101827.88;;;15.53;57.65
46718;BME280;32448;44.960;-0.698;2023-04-06T10:18:02;101830.59;;;15.59;57.31
46718;BME280;32448;44.960;-0.698;2023-04-06T10:23:12;101816.16;;;15.96;49.42
46718;BME280;32448;44.960;-0.698;2023-04-06T10:25:56;101831.28;;;16.11;46.87
46718;BME280;32448;44.960;-0.698;2023-04-06T10:28:23;101827.75;;;16.10;46.34
46718;BME280;32448;44.960;-0.698;2023-04-06T10:30:58;101826.88;;;16.13;54.93
46718;BME280;32448;44.960;-0.698;2023-04-06T10:33:26;101841.19;;;16.36;50.15
46718;BME280;32448;44.960;-0.698;2023-04-06T10:35:53;101837.69;;;16.37;46.61
46718;BME280;32448;44.960;-0.698;2023-04-06T10:38:35;101835.81;;;16.27;50.00
46718;BME280;32448;44.960;-0.698;2023-04-06T10:41:07;101821.66;;;16.17;48.51
46718;BME280;32448;44.960;-0.698;2023-04-06T10:43:36;101825.41;;;16.39;45.76
46718;BME280;32448;44.960;-0.698;2023-04-06T10:46:04;101819.41;;;16.55;54.51
46718;BME280;32448;44.960;-0.698;2023-04-06T10:48:38;101818.69;;;16.70;60.28
46718;BME280;32448;44.960;-0.698;2023-04-06T10:51:07;101804.59;;;16.66;52.81
46718;BME280;32448;44.960;-0.698;2023-04-06T10:53:35;101815.25;;;16.82;41.51
46718;BME280;32448;44.960;-0.698;2023-04-06T10:56:02;101815.25;;;16.77;47.79
46718;BME280;32448;44.960;-0.698;2023-04-06T10:58:29;101824.19;;;16.96;42.67
46718;BME280;32448;44.960;-0.698;2023-04-06T11:00:57;101823.19;;;16.82;43.90
46718;BME280;32448;44.960;-0.698;2023-04-06T11:03:27;101823.19;;;16.82;46.05
46718;BME280;32448;44.960;-0.698;2023-04-06T11:05:54;101820.63;;;16.92;43.25
46718;BME280;32448;44.960;-0.698;2023-04-06T11:08:31;101825.97;;;17.01;43.64
46718;BME280;32448;44.960;-0.698;2023-04-06T11:11:11;101825.13;;;17.01;47.81
46718;BME280;32448;44.960;-0.698;2023-04-06T11:13:43;101827.97;;;17.31;47.09
46718;BME280;32448;44.960;-0.698;2023-04-06T11:16:14;101827.97;;;17.37;43.14
46718;BME280;32448;44.960;-0.698;2023-04-06T11:21:14;101822.88;;;17.69;37.38
46718;BME280;32448;44.960;-0.698;2023-04-06T11:23:41;101826.34;;;17.59;42.17
46718;BME280;32448;44.960;-0.698;2023-04-06T11:26:12;101824.69;;;17.79;39.74
46718;BME280;32448;44.960;-0.698;2023-04-06T11:28:40;101822.03;;;17.73;42.87
46718;BME280;32448;44.960;-0.698;2023-04-06T11:31:09;101821.22;;;17.87;44.95
46718;BME280;32448;44.960;-0.698;2023-04-06T11:33:37;101820.41;;;18.06;43.92
46718;BME280;32448;44.960;-0.698;2023-04-06T11:36:07;101816.88;;;18.14;35.70
46718;BME280;32448;44.960;-0.698;2023-04-06T11:38:38;101817.75;;;18.00;40.49
46718;BME280;32448;44.960;-0.698;2023-04-06T11:41:05;101810.69;;;17.99;38.88
46718;BME280;32448;44.960;-0.698;2023-04-06T11:43:32;101807.16;;;18.06;44.87
46718;BME280;32448;44.960;-0.698;2023-04-06T11:46:00;101799.28;;;18.39;39.73
46718;BME280;32448;44.960;-0.698;2023-04-06T11:48:29;101803.69;;;18.22;38.22
46718;BME280;32448;44.960;-0.698;2023-04-06T11:50:57;101805.44;;;18.34;43.74
46718;BME280;32448;44.960;-0.698;2023-04-06T11:53:25;101796.69;;;18.68;46.08
46718;BME280;32448;44.960;-0.698;2023-04-06T11:55:53;101794.94;;;18.76;46.42
46718;BME280;32448;44.960;-0.698;2023-04-06T11:58:20;101797.59;;;18.73;44.17
46718;BME280;32448;44.960;-0.698;2023-04-06T12:00:47;101795.81;;;18.87;45.11
46718;BME280;32448;44.960;-0.698;2023-04-06T12:03:14;101793.09;;;19.12;47.46
46718;BME280;32448;44.960;-0.698;2023-04-06T12:05:44;101793.09;;;19.22;43.95
46718;BME280;32448;44.960;-0.698;2023-04-06T12:08:12;101788.69;;;19.21;43.70
46718;BME280;32448;44.960;-0.698;2023-04-06T12:10:39;101789.53;;;19.34;47.17
46718;BME280;32448;44.960;-0.698;2023-04-06T12:13:06;101786.88;;;19.40;39.30
46718;BME280;32448;44.960;-0.698;2023-04-06T12:15:34;101784.28;;;19.19;41.37
46718;BME280;32448;44.960;-0.698;2023-04-06T12:18:01;101782.47;;;19.24;44.82
46718;BME280;32448;44.960;-0.698;2023-04-06T12:20:28;101781.53;;;19.45;45.20
46718;BME280;32448;44.960;-0.698;2023-04-06T12:22:55;101774.50;;;19.44;40.72
46718;BME280;32448;44.960;-0.698;2023-04-06T12:25:22;101778.00;;;19.59;44.73
46718;BME280;32448;44.960;-0.698;2023-04-06T12:27:49;101770.06;;;19.53;45.24
46718;BME280;32448;44.960;-0.698;2023-04-06T12:30:16;101773.53;;;19.69;45.29
46718;BME280;32448;44.960;-0.698;2023-04-06T12:32:44;101770.06;;;19.52;41.78
46718;BME280;32448;44.960;-0.698;2023-04-06T12:35:11;101780.63;;;19.58;45.92
46718;BME280;32448;44.960;-0.698;2023-04-06T12:37:39;101765.50;;;19.78;48.30
46718;BME280;32448;44.960;-0.698;2023-04-06T12:40:07;101770.84;;;19.77;38.35
46718;BME280;32448;44.960;-0.698;2023-04-06T12:42:34;101761.19;;;19.59;41.61
46718;BME280;32448;44.960;-0.698;2023-04-06T12:45:01;101761.16;;;19.68;45.27
46718;BME280;32448;44.960;-0.698;2023-04-06T12:47:28;101751.41;;;19.70;42.74
46718;BME280;32448;44.960;-0.698;2023-04-06T12:49:55;101758.53;;;19.65;36.12
46718;BME280;32448;44.960;-0.698;2023-04-06T12:52:23;101752.28;;;19.75;42.56
46718;BME280;32448;44.960;-0.698;2023-04-06T12:54:51;101745.22;;;19.73;37.44
46718;BME280;32448;44.960;-0.698;2023-04-06T12:57:19;101756.72;;;19.69;38.39
46718;BME280;32448;44.960;-0.698;2023-04-06T12:59:46;101746.16;;;19.58;38.66